TAF and METAR

No METAR available for Inca Manco Capac Airport

TAF for Inca Manco Capac Airport

TAF SPJL 262300Z 2700/2724 26005KT 9999 SCT015 BKN080 TX17/2718Z TN06/2710Z FM270700 VRB05KT 9999 SCT013 BKN070 FM271330 06005KT 9999 SCT017 SCT100
Report created 27. februar 2020 00:00

between 27. februar 2020 01:00 - 27. februar 2020 01:00

wind 5 knots from W (260°) visibility > 10km scattered clouds (~50% cover) at 1500 feet broken clouds (~75% cover) at 8000 feet Max temperature 17° expected today at around 19 o'clock Min temperature 06° expected today at around 11 o'clock

From 27. februar 2020 08:00

wind 5 knots from various directions visibility > 10km scattered clouds (~50% cover) at 1300 feet broken clouds (~75% cover) at 7000 feet

From 27. februar 2020 14:30

wind 5 knots from ENE (060°) visibility > 10km scattered clouds (~50% cover) at 1700 feet scattered clouds (~50% cover) at 10000 feet
Inca Manco Capac Airport in Peru at 3827m

Latest 5 airports